sensor_id;sensor_type;location;lat;lon;timestamp;pressure;altitude;pressure_sealevel;temperature;humidity
74334;BME280;62753;40.394;-80.022;2022-09-29T00:00:20;98336.75;;;16.68;43.31
74334;BME280;62753;40.394;-80.022;2022-09-29T00:02:44;98340.01;;;16.51;43.57
74334;BME280;62753;40.394;-80.022;2022-09-29T00:05:10;98343.92;;;15.98;44.34
74334;BME280;62753;40.394;-80.022;2022-09-29T00:07:36;98344.44;;;16.65;43.45
74334;BME280;62753;40.394;-80.022;2022-09-29T00:10:00;98343.50;;;16.75;42.50
74334;BME280;62753;40.394;-80.022;2022-09-29T00:12:26;98343.66;;;17.41;42.13
74334;BME280;62753;40.394;-80.022;2022-09-29T00:14:51;98349.17;;;16.65;42.66
74334;BME280;62753;40.394;-80.022;2022-09-29T00:17:16;98358.72;;;17.14;42.06
74334;BME280;62753;40.394;-80.022;2022-09-29T00:19:42;98363.05;;;16.53;42.20
74334;BME280;62753;40.394;-80.022;2022-09-29T00:22:07;98368.78;;;17.12;41.40
74334;BME280;62753;40.394;-80.022;2022-09-29T00:24:33;98368.58;;;17.25;41.54
74334;BME280;62753;40.394;-80.022;2022-09-29T00:26:58;98371.34;;;16.53;42.81
74334;BME280;62753;40.394;-80.022;2022-09-29T00:29:23;98373.49;;;16.90;42.62
74334;BME280;62753;40.394;-80.022;2022-09-29T00:31:48;98372.89;;;16.64;42.21
74334;BME280;62753;40.394;-80.022;2022-09-29T00:34:14;98372.45;;;16.46;43.20
74334;BME280;62753;40.394;-80.022;2022-09-29T00:36:39;98372.87;;;16.84;41.99
74334;BME280;62753;40.394;-80.022;2022-09-29T00:39:04;98375.25;;;17.01;41.94
74334;BME280;62753;40.394;-80.022;2022-09-29T00:41:32;98376.01;;;16.99;41.71
74334;BME280;62753;40.394;-80.022;2022-09-29T00:43:57;98380.02;;;17.65;41.55
74334;BME280;62753;40.394;-80.022;2022-09-29T00:46:25;98381.90;;;16.95;41.47
74334;BME280;62753;40.394;-80.022;2022-09-29T00:48:47;98382.99;;;16.62;41.54
74334;BME280;62753;40.394;-80.022;2022-09-29T00:51:12;98386.93;;;16.77;41.59
74334;BME280;62753;40.394;-80.022;2022-09-29T00:53:37;98391.52;;;16.95;41.88
74334;BME280;62753;40.394;-80.022;2022-09-29T00:56:04;98389.67;;;16.66;42.18
74334;BME280;62753;40.394;-80.022;2022-09-29T00:58:32;98393.32;;;16.01;42.27
74334;BME280;62753;40.394;-80.022;2022-09-29T01:00:53;98395.77;;;16.12;42.65
74334;BME280;62753;40.394;-80.022;2022-09-29T01:03:20;98397.92;;;16.29;42.40
74334;BME280;62753;40.394;-80.022;2022-09-29T01:05:46;98402.92;;;16.56;42.25
74334;BME280;62753;40.394;-80.022;2022-09-29T01:08:12;98404.83;;;16.25;42.46
74334;BME280;62753;40.394;-80.022;2022-09-29T01:10:35;98404.44;;;16.44;42.77
74334;BME280;62753;40.394;-80.022;2022-09-29T01:13:00;98406.67;;;16.43;42.02
74334;BME280;62753;40.394;-80.022;2022-09-29T01:15:25;98406.29;;;15.83;42.95
74334;BME280;62753;40.394;-80.022;2022-09-29T01:17:50;98407.52;;;16.21;42.40
74334;BME280;62753;40.394;-80.022;2022-09-29T01:20:17;98410.11;;;17.30;42.01
74334;BME280;62753;40.394;-80.022;2022-09-29T01:22:53;98415.17;;;16.58;42.09
74334;BME280;62753;40.394;-80.022;2022-09-29T01:25:18;98417.22;;;16.79;41.60
74334;BME280;62753;40.394;-80.022;2022-09-29T01:27:50;98422.48;;;15.78;42.57
74334;BME280;62753;40.394;-80.022;2022-09-29T01:30:07;98425.54;;;16.83;41.50
74334;BME280;62753;40.394;-80.022;2022-09-29T01:32:28;98429.81;;;16.48;41.43
74334;BME280;62753;40.394;-80.022;2022-09-29T01:34:52;98428.02;;;16.31;42.02
74334;BME280;62753;40.394;-80.022;2022-09-29T01:37:16;98428.53;;;16.59;41.47
74334;BME280;62753;40.394;-80.022;2022-09-29T01:39:40;98429.08;;;16.48;41.70
74334;BME280;62753;40.394;-80.022;2022-09-29T01:42:06;98436.12;;;16.27;41.10
74334;BME280;62753;40.394;-80.022;2022-09-29T01:44:30;98438.43;;;16.91;40.79
74334;BME280;62753;40.394;-80.022;2022-09-29T01:46:56;98434.88;;;16.53;40.92
74334;BME280;62753;40.394;-80.022;2022-09-29T01:49:21;98436.72;;;16.44;40.76
74334;BME280;62753;40.394;-80.022;2022-09-29T01:51:50;98441.18;;;16.82;40.48
74334;BME280;62753;40.394;-80.022;2022-09-29T01:54:14;98441.23;;;16.75;40.43
74334;BME280;62753;40.394;-80.022;2022-09-29T01:56:38;98440.55;;;17.18;39.77
74334;BME280;62753;40.394;-80.022;2022-09-29T01:59:04;98444.82;;;17.25;39.60
74334;BME280;62753;40.394;-80.022;2022-09-29T02:01:30;98445.16;;;16.76;39.52
74334;BME280;62753;40.394;-80.022;2022-09-29T02:03:55;98448.81;;;16.36;40.15
74334;BME280;62753;40.394;-80.022;2022-09-29T02:06:19;98452.05;;;16.56;40.10
74334;BME280;62753;40.394;-80.022;2022-09-29T02:08:44;98454.39;;;16.93;40.29
74334;BME280;62753;40.394;-80.022;2022-09-29T02:11:08;98456.04;;;16.50;40.26
74334;BME280;62753;40.394;-80.022;2022-09-29T02:13:35;98459.35;;;17.00;40.29
74334;BME280;62753;40.394;-80.022;2022-09-29T02:15:58;98462.82;;;16.41;40.07
74334;BME280;62753;40.394;-80.022;2022-09-29T02:18:26;98464.16;;;17.01;40.05
74334;BME280;62753;40.394;-80.022;2022-09-29T02:20:49;98463.56;;;16.43;40.24
74334;BME280;62753;40.394;-80.022;2022-09-29T02:23:13;98460.87;;;16.23;40.61
74334;BME280;62753;40.394;-80.022;2022-09-29T02:25:40;98456.19;;;16.08;40.83
74334;BME280;62753;40.394;-80.022;2022-09-29T02:28:04;98456.27;;;16.03;40.95
74334;BME280;62753;40.394;-80.022;2022-09-29T02:30:29;98452.86;;;16.09;41.14
74334;BME280;62753;40.394;-80.022;2022-09-29T02:32:54;98458.41;;;16.22;41.12
74334;BME280;62753;40.394;-80.022;2022-09-29T02:35:20;98465.68;;;16.51;41.05
74334;BME280;62753;40.394;-80.022;2022-09-29T02:37:55;98470.35;;;14.96;43.89
74334;BME280;62753;40.394;-80.022;2022-09-29T02:40:21;98471.09;;;14.81;45.43
74334;BME280;62753;40.394;-80.022;2022-09-29T02:42:39;98470.50;;;14.83;44.63
74334;BME280;62753;40.394;-80.022;2022-09-29T02:45:16;98467.91;;;15.18;44.69
74334;BME280;62753;40.394;-80.022;2022-09-29T02:47:41;98467.91;;;15.27;44.58
74334;BME280;62753;40.394;-80.022;2022-09-29T02:50:04;98467.32;;;14.88;44.01
74334;BME280;62753;40.394;-80.022;2022-09-29T02:52:23;98470.33;;;15.34;43.96
74334;BME280;62753;40.394;-80.022;2022-09-29T02:54:51;98475.77;;;14.47;45.00
74334;BME280;62753;40.394;-80.022;2022-09-29T02:57:16;98478.97;;;14.72;45.26
74334;BME280;62753;40.394;-80.022;2022-09-29T02:59:39;98479.80;;;15.50;44.82
74334;BME280;62753;40.394;-80.022;2022-09-29T03:01:59;98483.38;;;14.92;44.88
74334;BME280;62753;40.394;-80.022;2022-09-29T03:04:25;98482.15;;;13.89;46.38
74334;BME280;62753;40.394;-80.022;2022-09-29T03:06:49;98481.68;;;13.98;47.12
74334;BME280;62753;40.394;-80.022;2022-09-29T03:09:15;98487.24;;;14.88;44.91
74334;BME280;62753;40.394;-80.022;2022-09-29T03:11:40;98487.38;;;14.77;44.49
74334;BME280;62753;40.394;-80.022;2022-09-29T03:14:06;98486.43;;;15.34;43.42
74334;BME280;62753;40.394;-80.022;2022-09-29T03:16:31;98490.38;;;15.27;43.39
74334;BME280;62753;40.394;-80.022;2022-09-29T03:18:56;98491.55;;;15.25;43.06
74334;BME280;62753;40.394;-80.022;2022-09-29T03:21:21;98497.17;;;15.39;43.13
74334;BME280;62753;40.394;-80.022;2022-09-29T03:23:46;98495.14;;;15.35;42.90
74334;BME280;62753;40.394;-80.022;2022-09-29T03:26:12;98499.26;;;14.90;43.65
74334;BME280;62753;40.394;-80.022;2022-09-29T03:28:37;98502.94;;;15.16;43.80
74334;BME280;62753;40.394;-80.022;2022-09-29T03:31:04;98508.29;;;15.10;43.63
74334;BME280;62753;40.394;-80.022;2022-09-29T03:33:28;98512.28;;;15.43;42.91
74334;BME280;62753;40.394;-80.022;2022-09-29T03:35:53;98513.60;;;16.12;41.72
74334;BME280;62753;40.394;-80.022;2022-09-29T03:38:19;98511.24;;;16.38;40.49
74334;BME280;62753;40.394;-80.022;2022-09-29T03:40:44;98514.09;;;16.08;41.04
74334;BME280;62753;40.394;-80.022;2022-09-29T03:43:09;98518.29;;;16.22;40.36
74334;BME280;62753;40.394;-80.022;2022-09-29T03:45:35;98521.49;;;16.30;40.03
74334;BME280;62753;40.394;-80.022;2022-09-29T03:48:01;98521.62;;;16.55;39.45
74334;BME280;62753;40.394;-80.022;2022-09-29T03:50:26;98522.21;;;16.14;39.35
74334;BME280;62753;40.394;-80.022;2022-09-29T03:52:51;98523.63;;;16.93;38.72
74334;BME280;62753;40.394;-80.022;2022-09-29T03:55:17;98524.02;;;16.46;38.89
74334;BME280;62753;40.394;-80.022;2022-09-29T03:57:42;98519.97;;;16.19;39.47
74334;BME280;62753;40.394;-80.022;2022-09-29T04:00:09;98520.66;;;16.21;39.82
74334;BME280;62753;40.394;-80.022;2022-09-29T04:02:33;98522.76;;;15.92;39.36
74334;BME280;62753;40.394;-80.022;2022-09-29T04:04:58;98522.58;;;16.37;39.27
74334;BME280;62753;40.394;-80.022;2022-09-29T04:07:23;98527.29;;;16.37;39.08
74334;BME280;62753;40.394;-80.022;2022-09-29T04:09:49;98525.68;;;16.12;39.09
74334;BME280;62753;40.394;-80.022;2022-09-29T04:12:14;98522.77;;;16.38;39.01
74334;BME280;62753;40.394;-80.022;2022-09-29T04:14:40;98524.10;;;16.47;38.92
74334;BME280;62753;40.394;-80.022;2022-09-29T04:17:05;98520.89;;;16.07;39.82
74334;BME280;62753;40.394;-80.022;2022-09-29T04:19:30;98520.52;;;16.18;39.69
74334;BME280;62753;40.394;-80.022;2022-09-29T04:21:55;98520.61;;;15.70;39.89
74334;BME280;62753;40.394;-80.022;2022-09-29T04:24:21;98524.97;;;16.19;39.60
74334;BME280;62753;40.394;-80.022;2022-09-29T04:26:46;98521.26;;;15.95;39.98
74334;BME280;62753;40.394;-80.022;2022-09-29T04:29:11;98520.74;;;16.10;39.89
74334;BME280;62753;40.394;-80.022;2022-09-29T04:31:37;98522.75;;;16.09;39.68
74334;BME280;62753;40.394;-80.022;2022-09-29T04:34:02;98522.94;;;16.11;39.43
74334;BME280;62753;40.394;-80.022;2022-09-29T04:36:27;98522.89;;;16.58;39.25
74334;BME280;62753;40.394;-80.022;2022-09-29T04:38:53;98527.80;;;16.48;39.13
74334;BME280;62753;40.394;-80.022;2022-09-29T04:41:18;98531.00;;;16.49;38.94
74334;BME280;62753;40.394;-80.022;2022-09-29T04:43:43;98531.42;;;16.57;38.78
74334;BME280;62753;40.394;-80.022;2022-09-29T04:46:09;98528.92;;;16.14;38.70
74334;BME280;62753;40.394;-80.022;2022-09-29T04:48:35;98529.56;;;15.89;39.21
74334;BME280;62753;40.394;-80.022;2022-09-29T04:51:00;98531.56;;;16.09;39.38
74334;BME280;62753;40.394;-80.022;2022-09-29T04:53:24;98531.89;;;15.68;40.56
74334;BME280;62753;40.394;-80.022;2022-09-29T04:55:50;98529.16;;;15.85;40.14
74334;BME280;62753;40.394;-80.022;2022-09-29T04:58:15;98529.88;;;15.63;40.70
74334;BME280;62753;40.394;-80.022;2022-09-29T05:00:40;98526.02;;;16.09;40.85
74334;BME280;62753;40.394;-80.022;2022-09-29T05:03:06;98520.89;;;15.76;40.68
74334;BME280;62753;40.394;-80.022;2022-09-29T05:05:31;98524.24;;;15.54;42.82
74334;BME280;62753;40.394;-80.022;2022-09-29T05:07:56;98523.34;;;14.50;43.54
74334;BME280;62753;40.394;-80.022;2022-09-29T05:10:22;98526.44;;;14.57;44.58
74334;BME280;62753;40.394;-80.022;2022-09-29T05:12:47;98532.62;;;14.63;44.59
74334;BME280;62753;40.394;-80.022;2022-09-29T05:15:13;98535.72;;;14.47;45.70
74334;BME280;62753;40.394;-80.022;2022-09-29T05:17:38;98541.02;;;14.26;45.95
74334;BME280;62753;40.394;-80.022;2022-09-29T05:20:04;98545.01;;;14.31;45.82
74334;BME280;62753;40.394;-80.022;2022-09-29T05:22:28;98546.72;;;15.16;43.75
74334;BME280;62753;40.394;-80.022;2022-09-29T05:24:54;98549.40;;;15.49;42.96
74334;BME280;62753;40.394;-80.022;2022-09-29T05:27:20;98551.19;;;15.65;42.61
74334;BME280;62753;40.394;-80.022;2022-09-29T05:29:45;98549.06;;;15.75;42.13
74334;BME280;62753;40.394;-80.022;2022-09-29T05:32:11;98551.02;;;16.08;42.21
74334;BME280;62753;40.394;-80.022;2022-09-29T05:34:36;98553.79;;;15.00;44.21
74334;BME280;62753;40.394;-80.022;2022-09-29T05:37:01;98556.02;;;15.03;44.46
74334;BME280;62753;40.394;-80.022;2022-09-29T05:39:26;98555.82;;;15.24;43.70
74334;BME280;62753;40.394;-80.022;2022-09-29T05:41:51;98556.69;;;16.00;43.38
74334;BME280;62753;40.394;-80.022;2022-09-29T05:44:17;98554.39;;;15.59;43.49
74334;BME280;62753;40.394;-80.022;2022-09-29T05:46:42;98556.43;;;14.97;43.34
74334;BME280;62753;40.394;-80.022;2022-09-29T05:49:07;98559.09;;;15.09;44.77
74334;BME280;62753;40.394;-80.022;2022-09-29T05:51:33;98561.02;;;14.56;45.23
74334;BME280;62753;40.394;-80.022;2022-09-29T05:53:58;98560.63;;;14.63;45.21
74334;BME280;62753;40.394;-80.022;2022-09-29T05:56:26;98560.56;;;14.96;44.68
74334;BME280;62753;40.394;-80.022;2022-09-29T05:58:49;98566.60;;;14.44;46.17
74334;BME280;62753;40.394;-80.022;2022-09-29T06:01:16;98567.19;;;14.16;46.40
74334;BME280;62753;40.394;-80.022;2022-09-29T06:03:40;98560.74;;;14.50;45.97
74334;BME280;62753;40.394;-80.022;2022-09-29T06:06:06;98568.17;;;14.24;46.48
74334;BME280;62753;40.394;-80.022;2022-09-29T06:08:30;98562.17;;;14.75;46.01
74334;BME280;62753;40.394;-80.022;2022-09-29T06:11:02;98563.96;;;15.16;45.13
74334;BME280;62753;40.394;-80.022;2022-09-29T06:13:21;98566.54;;;14.46;44.57
74334;BME280;62753;40.394;-80.022;2022-09-29T06:15:46;98566.17;;;14.47;45.43
74334;BME280;62753;40.394;-80.022;2022-09-29T06:18:11;98568.42;;;14.12;46.31
74334;BME280;62753;40.394;-80.022;2022-09-29T06:20:37;98563.57;;;14.85;45.42
74334;BME280;62753;40.394;-80.022;2022-09-29T06:23:02;98565.73;;;14.78;45.42
74334;BME280;62753;40.394;-80.022;2022-09-29T06:25:27;98565.65;;;14.20;45.70
74334;BME280;62753;40.394;-80.022;2022-09-29T06:27:52;98570.16;;;14.31;45.58
74334;BME280;62753;40.394;-80.022;2022-09-29T06:30:17;98572.67;;;14.74;44.81
74334;BME280;62753;40.394;-80.022;2022-09-29T06:32:43;98570.63;;;15.09;44.61
74334;BME280;62753;40.394;-80.022;2022-09-29T06:35:08;98568.28;;;14.90;44.58
74334;BME280;62753;40.394;-80.022;2022-09-29T06:37:34;98569.75;;;14.67;44.13
74334;BME280;62753;40.394;-80.022;2022-09-29T06:39:59;98566.12;;;15.08;44.70
74334;BME280;62753;40.394;-80.022;2022-09-29T06:42:24;98574.30;;;14.06;47.53
74334;BME280;62753;40.394;-80.022;2022-09-29T06:44:49;98575.67;;;14.46;47.43
74334;BME280;62753;40.394;-80.022;2022-09-29T06:47:15;98575.08;;;13.64;47.70
74334;BME280;62753;40.394;-80.022;2022-09-29T06:49:40;98577.14;;;13.74;47.84
74334;BME280;62753;40.394;-80.022;2022-09-29T06:52:06;98576.33;;;14.37;47.47
74334;BME280;62753;40.394;-80.022;2022-09-29T06:54:31;98573.92;;;14.90;45.78
74334;BME280;62753;40.394;-80.022;2022-09-29T06:56:56;98573.03;;;15.04;45.26
74334;BME280;62753;40.394;-80.022;2022-09-29T06:59:21;98571.29;;;15.11;45.44
74334;BME280;62753;40.394;-80.022;2022-09-29T07:01:47;98574.36;;;14.38;46.14
74334;BME280;62753;40.394;-80.022;2022-09-29T07:04:12;98572.73;;;14.51;46.27
74334;BME280;62753;40.394;-80.022;2022-09-29T07:06:37;98571.01;;;14.99;45.61
74334;BME280;62753;40.394;-80.022;2022-09-29T07:09:03;98568.86;;;14.59;45.54
74334;BME280;62753;40.394;-80.022;2022-09-29T07:11:28;98568.06;;;15.28;45.13
74334;BME280;62753;40.394;-80.022;2022-09-29T07:13:54;98565.94;;;14.30;45.67
74334;BME280;62753;40.394;-80.022;2022-09-29T07:16:19;98568.82;;;14.85;45.20
74334;BME280;62753;40.394;-80.022;2022-09-29T07:18:44;98569.95;;;14.75;45.00
74334;BME280;62753;40.394;-80.022;2022-09-29T07:21:11;98574.05;;;15.15;43.91
74334;BME280;62753;40.394;-80.022;2022-09-29T07:23:36;98576.43;;;15.12;44.09
74334;BME280;62753;40.394;-80.022;2022-09-29T07:26:00;98573.05;;;15.27;44.50
74334;BME280;62753;40.394;-80.022;2022-09-29T07:28:26;98565.73;;;14.73;45.58
74334;BME280;62753;40.394;-80.022;2022-09-29T07:31:00;98564.17;;;14.62;45.37
74334;BME280;62753;40.394;-80.022;2022-09-29T07:33:16;98562.92;;;14.54;45.41
74334;BME280;62753;40.394;-80.022;2022-09-29T07:35:41;98565.41;;;14.65;45.41
74334;BME280;62753;40.394;-80.022;2022-09-29T07:38:07;98567.52;;;14.88;44.69
74334;BME280;62753;40.394;-80.022;2022-09-29T07:40:32;98567.56;;;15.19;44.21
74334;BME280;62753;40.394;-80.022;2022-09-29T07:42:58;98573.86;;;15.13;44.19
74334;BME280;62753;40.394;-80.022;2022-09-29T07:45:23;98575.24;;;14.59;44.88
74334;BME280;62753;40.394;-80.022;2022-09-29T07:47:48;98572.09;;;14.18;45.86
74334;BME280;62753;40.394;-80.022;2022-09-29T07:50:13;98569.44;;;14.84;43.77
74334;BME280;62753;40.394;-80.022;2022-09-29T07:52:39;98566.91;;;14.55;42.84
74334;BME280;62753;40.394;-80.022;2022-09-29T07:55:05;98578.48;;;13.68;44.88
74334;BME280;62753;40.394;-80.022;2022-09-29T07:57:30;98578.97;;;14.25;44.89
74334;BME280;62753;40.394;-80.022;2022-09-29T07:59:55;98582.59;;;12.95;46.79
74334;BME280;62753;40.394;-80.022;2022-09-29T08:02:20;98583.78;;;14.16;44.94
74334;BME280;62753;40.394;-80.022;2022-09-29T08:04:46;98584.46;;;13.66;46.91
74334;BME280;62753;40.394;-80.022;2022-09-29T08:07:11;98585.09;;;13.64;45.86
74334;BME280;62753;40.394;-80.022;2022-09-29T08:09:37;98584.37;;;14.32;44.92
74334;BME280;62753;40.394;-80.022;2022-09-29T08:12:01;98583.72;;;14.31;45.08
74334;BME280;62753;40.394;-80.022;2022-09-29T08:14:27;98583.22;;;14.49;44.43
74334;BME280;62753;40.394;-80.022;2022-09-29T08:16:52;98588.16;;;13.81;45.25
74334;BME280;62753;40.394;-80.022;2022-09-29T08:19:17;98589.99;;;13.82;45.33
74334;BME280;62753;40.394;-80.022;2022-09-29T08:21:43;98591.57;;;13.57;45.50
74334;BME280;62753;40.394;-80.022;2022-09-29T08:24:11;98590.70;;;14.90;43.97
74334;BME280;62753;40.394;-80.022;2022-09-29T08:26:36;98598.33;;;14.06;44.84
74334;BME280;62753;40.394;-80.022;2022-09-29T08:28:59;98588.80;;;14.80;42.87
74334;BME280;62753;40.394;-80.022;2022-09-29T08:31:24;98590.07;;;15.60;41.20
74334;BME280;62753;40.394;-80.022;2022-09-29T08:33:50;98592.11;;;14.48;42.53
74334;BME280;62753;40.394;-80.022;2022-09-29T08:36:15;98584.67;;;15.12;42.11
74334;BME280;62753;40.394;-80.022;2022-09-29T08:38:41;98592.13;;;14.49;42.57
74334;BME280;62753;40.394;-80.022;2022-09-29T08:41:06;98587.92;;;14.71;42.20
74334;BME280;62753;40.394;-80.022;2022-09-29T08:43:35;98595.35;;;14.35;42.17
74334;BME280;62753;40.394;-80.022;2022-09-29T08:46:00;98595.83;;;14.30;42.28
74334;BME280;62753;40.394;-80.022;2022-09-29T08:48:24;98595.15;;;14.74;41.47
74334;BME280;62753;40.394;-80.022;2022-09-29T08:50:50;98595.86;;;15.53;40.06
74334;BME280;62753;40.394;-80.022;2022-09-29T08:53:15;98594.32;;;12.74;46.57
74334;BME280;62753;40.394;-80.022;2022-09-29T08:55:42;98595.24;;;14.33;42.92
74334;BME280;62753;40.394;-80.022;2022-09-29T08:58:03;98590.41;;;14.73;42.34
74334;BME280;62753;40.394;-80.022;2022-09-29T09:00:34;98591.28;;;14.73;42.60
74334;BME280;62753;40.394;-80.022;2022-09-29T09:03:05;98590.87;;;14.85;42.54
74334;BME280;62753;40.394;-80.022;2022-09-29T09:05:30;98592.71;;;10.67;49.12
74334;BME280;62753;40.394;-80.022;2022-09-29T09:07:50;98591.49;;;11.09;51.52
74334;BME280;62753;40.394;-80.022;2022-09-29T09:10:21;98592.93;;;11.97;50.15
74334;BME280;62753;40.394;-80.022;2022-09-29T09:15:13;98595.02;;;13.02;46.64
74334;BME280;62753;40.394;-80.022;2022-09-29T09:17:42;98599.62;;;13.23;45.58
74334;BME280;62753;40.394;-80.022;2022-09-29T09:20:01;98602.64;;;12.56;45.72
74334;BME280;62753;40.394;-80.022;2022-09-29T09:22:21;98606.07;;;13.24;45.12
74334;BME280;62753;40.394;-80.022;2022-09-29T09:24:47;98611.51;;;12.84;46.38
74334;BME280;62753;40.394;-80.022;2022-09-29T09:27:12;98613.36;;;13.55;44.58
74334;BME280;62753;40.394;-80.022;2022-09-29T09:29:36;98615.49;;;13.90;43.51
74334;BME280;62753;40.394;-80.022;2022-09-29T09:32:02;98616.02;;;14.04;42.91
74334;BME280;62753;40.394;-80.022;2022-09-29T09:34:27;98611.61;;;13.12;44.50
74334;BME280;62753;40.394;-80.022;2022-09-29T09:36:53;98609.53;;;13.07;45.44
74334;BME280;62753;40.394;-80.022;2022-09-29T09:39:17;98613.56;;;12.97;44.97
74334;BME280;62753;40.394;-80.022;2022-09-29T09:41:43;98615.41;;;12.53;46.23
74334;BME280;62753;40.394;-80.022;2022-09-29T09:44:11;98617.84;;;12.59;46.11
74334;BME280;62753;40.394;-80.022;2022-09-29T09:46:35;98622.01;;;13.73;43.84
74334;BME280;62753;40.394;-80.022;2022-09-29T09:49:02;98625.48;;;14.15;42.41
74334;BME280;62753;40.394;-80.022;2022-09-29T09:51:30;98626.58;;;13.99;42.96
74334;BME280;62753;40.394;-80.022;2022-09-29T09:53:48;98628.74;;;14.75;41.69
74334;BME280;62753;40.394;-80.022;2022-09-29T09:56:20;98630.89;;;13.68;42.49
74334;BME280;62753;40.394;-80.022;2022-09-29T10:01:04;98627.78;;;14.71;41.22
74334;BME280;62753;40.394;-80.022;2022-09-29T10:03:29;98634.22;;;14.69;41.10
74334;BME280;62753;40.394;-80.022;2022-09-29T10:05:55;98641.57;;;14.29;41.59
74334;BME280;62753;40.394;-80.022;2022-09-29T10:08:23;98642.45;;;13.86;42.28
74334;BME280;62753;40.394;-80.022;2022-09-29T10:10:45;98644.67;;;14.14;41.83
74334;BME280;62753;40.394;-80.022;2022-09-29T10:13:12;98647.43;;;13.56;41.94
74334;BME280;62753;40.394;-80.022;2022-09-29T10:15:39;98646.20;;;13.55;43.45
74334;BME280;62753;40.394;-80.022;2022-09-29T10:18:05;98646.11;;;13.52;43.68
74334;BME280;62753;40.394;-80.022;2022-09-29T10:20:32;98647.76;;;12.67;45.96
74334;BME280;62753;40.394;-80.022;2022-09-29T10:22:52;98644.70;;;12.43;46.52
74334;BME280;62753;40.394;-80.022;2022-09-29T10:25:18;98648.93;;;12.23;46.97
74334;BME280;62753;40.394;-80.022;2022-09-29T10:27:45;98648.27;;;11.94;48.40
74334;BME280;62753;40.394;-80.022;2022-09-29T10:30:17;98650.73;;;12.00;48.58
74334;BME280;62753;40.394;-80.022;2022-09-29T10:32:34;98653.78;;;11.66;48.26
74334;BME280;62753;40.394;-80.022;2022-09-29T10:35:05;98653.35;;;12.03;47.86
74334;BME280;62753;40.394;-80.022;2022-09-29T10:37:29;98652.67;;;12.33;46.93
74334;BME280;62753;40.394;-80.022;2022-09-29T10:39:50;98647.75;;;12.89;45.78
74334;BME280;62753;40.394;-80.022;2022-09-29T10:42:19;98646.56;;;12.84;45.30
74334;BME280;62753;40.394;-80.022;2022-09-29T10:44:39;98641.15;;;12.62;44.60
74334;BME280;62753;40.394;-80.022;2022-09-29T10:47:06;98643.77;;;13.34;43.02
74334;BME280;62753;40.394;-80.022;2022-09-29T10:49:30;98643.11;;;14.09;41.88
74334;BME280;62753;40.394;-80.022;2022-09-29T10:51:59;98642.98;;;13.79;41.82
74334;BME280;62753;40.394;-80.022;2022-09-29T10:54:23;98640.51;;;13.91;40.75
74334;BME280;62753;40.394;-80.022;2022-09-29T10:56:47;98638.31;;;14.88;39.94
74334;BME280;62753;40.394;-80.022;2022-09-29T10:59:11;98640.34;;;14.34;38.99
74334;BME280;62753;40.394;-80.022;2022-09-29T11:01:43;98640.09;;;14.02;39.02
74334;BME280;62753;40.394;-80.022;2022-09-29T11:04:04;98645.91;;;14.19;38.97
74334;BME280;62753;40.394;-80.022;2022-09-29T11:06:29;98650.33;;;14.70;39.28
74334;BME280;62753;40.394;-80.022;2022-09-29T11:08:55;98655.12;;;14.61;39.16
74334;BME280;62753;40.394;-80.022;2022-09-29T11:11:21;98656.95;;;14.44;38.79
74334;BME280;62753;40.394;-80.022;2022-09-29T11:13:44;98665.52;;;14.15;39.35
74334;BME280;62753;40.394;-80.022;2022-09-29T11:16:14;98668.13;;;14.75;39.71
74334;BME280;62753;40.394;-80.022;2022-09-29T11:18:37;98667.83;;;13.86;40.77
74334;BME280;62753;40.394;-80.022;2022-09-29T11:21:06;98674.93;;;14.69;39.37
74334;BME280;62753;40.394;-80.022;2022-09-29T11:23:30;98677.51;;;13.92;39.28
74334;BME280;62753;40.394;-80.022;2022-09-29T11:30:49;98683.27;;;12.70;42.48
74334;BME280;62753;40.394;-80.022;2022-09-29T11:33:15;98683.28;;;13.67;41.52
74334;BME280;62753;40.394;-80.022;2022-09-29T11:35:39;98682.98;;;13.37;41.86
74334;BME280;62753;40.394;-80.022;2022-09-29T11:38:07;98684.38;;;13.82;40.72
74334;BME280;62753;40.394;-80.022;2022-09-29T11:40:28;98691.54;;;11.79;45.19
74334;BME280;62753;40.394;-80.022;2022-09-29T11:42:59;98682.65;;;13.38;41.46
74334;BME280;62753;40.394;-80.022;2022-09-29T11:45:13;98684.14;;;13.22;41.87
74334;BME280;62753;40.394;-80.022;2022-09-29T11:47:50;98694.82;;;13.64;41.54
74334;BME280;62753;40.394;-80.022;2022-09-29T11:50:17;98697.20;;;13.47;41.62
74334;BME280;62753;40.394;-80.022;2022-09-29T11:52:39;98698.18;;;14.66;40.55
74334;BME280;62753;40.394;-80.022;2022-09-29T11:55:03;98700.31;;;12.12;44.55
74334;BME280;62753;40.394;-80.022;2022-09-29T11:57:28;98700.16;;;13.64;41.63
74334;BME280;62753;40.394;-80.022;2022-09-29T11:59:56;98700.33;;;13.81;41.28
74334;BME280;62753;40.394;-80.022;2022-09-29T12:02:18;98703.65;;;13.86;41.31
74334;BME280;62753;40.394;-80.022;2022-09-29T12:04:42;98709.91;;;12.92;42.11
74334;BME280;62753;40.394;-80.022;2022-09-29T12:07:07;98711.24;;;12.14;44.43
74334;BME280;62753;40.394;-80.022;2022-09-29T12:09:39;98721.96;;;12.68;44.61
74334;BME280;62753;40.394;-80.022;2022-09-29T12:11:56;98718.71;;;11.47;46.69
74334;BME280;62753;40.394;-80.022;2022-09-29T12:14:20;98711.97;;;11.56;47.87
74334;BME280;62753;40.394;-80.022;2022-09-29T12:16:47;98712.55;;;13.02;44.63
74334;BME280;62753;40.394;-80.022;2022-09-29T12:19:10;98716.41;;;12.82;45.37
74334;BME280;62753;40.394;-80.022;2022-09-29T12:21:35;98719.82;;;13.65;43.60
74334;BME280;62753;40.394;-80.022;2022-09-29T12:23:59;98720.97;;;12.05;45.52
74334;BME280;62753;40.394;-80.022;2022-09-29T12:26:24;98726.35;;;12.17;45.19
74334;BME280;62753;40.394;-80.022;2022-09-29T12:28:51;98722.80;;;14.01;42.60
74334;BME280;62753;40.394;-80.022;2022-09-29T12:31:19;98724.16;;;14.60;41.66
74334;BME280;62753;40.394;-80.022;2022-09-29T12:33:42;98724.93;;;13.38;42.84
74334;BME280;62753;40.394;-80.022;2022-09-29T12:36:16;98727.66;;;14.42;40.97
74334;BME280;62753;40.394;-80.022;2022-09-29T12:38:34;98723.99;;;14.09;42.90